createdAt,value
2022-11-14T00:00:03.305Z,1008.53
2022-11-14T00:05:03.155Z,1008.57
2022-11-14T00:10:03.284Z,1008.45
2022-11-14T00:15:03.244Z,1008.26
2022-11-14T00:20:03.410Z,1008.18
2022-11-14T00:25:03.250Z,1008.16
2022-11-14T00:30:03.484Z,1008.24
2022-11-14T00:35:03.172Z,1008.3
2022-11-14T00:40:03.300Z,1008.36
2022-11-14T00:45:03.324Z,1008.55
2022-11-14T00:50:03.328Z,1008.63
2022-11-14T00:55:03.302Z,1008.84
2022-11-14T01:00:04.524Z,1009.02
2022-11-14T01:05:03.204Z,1008.93
2022-11-14T01:10:03.239Z,1008.85
2022-11-14T01:15:03.204Z,1008.89
2022-11-14T01:20:03.303Z,1008.82
2022-11-14T01:25:03.306Z,1008.81
2022-11-14T01:30:04.199Z,1008.97
2022-11-14T01:35:03.221Z,1009.06
2022-11-14T01:40:03.224Z,1009.31
2022-11-14T01:45:03.217Z,1009.29
2022-11-14T01:50:04.205Z,1009.2
2022-11-14T01:55:03.342Z,1008.86
2022-11-14T02:00:04.268Z,1008.99
2022-11-14T02:05:05.074Z,1009.23
2022-11-14T02:10:03.433Z,1009.26
2022-11-14T02:15:03.221Z,1008.97
2022-11-14T02:20:05.213Z,1008.97
2022-11-14T02:25:03.270Z,1008.97
2022-11-14T02:30:03.163Z,1008.94
2022-11-14T02:35:03.163Z,1008.89
2022-11-14T02:40:03.341Z,1008.91
2022-11-14T02:45:03.229Z,1008.89
2022-11-14T02:50:03.294Z,1008.73
2022-11-14T02:55:03.235Z,1008.68
2022-11-14T03:00:03.343Z,1008.91
2022-11-14T03:05:03.114Z,1009.0
2022-11-14T03:10:03.279Z,1009.5
2022-11-14T03:15:03.179Z,1009.76
2022-11-14T03:20:03.312Z,1010.16
2022-11-14T03:25:03.449Z,1010.18
2022-11-14T03:30:03.361Z,1010.18
2022-11-14T03:35:04.211Z,1010.27
2022-11-14T03:40:03.432Z,1010.23
2022-11-14T03:45:03.186Z,1010.07
2022-11-14T03:50:03.419Z,1010.14
2022-11-14T03:55:03.253Z,1009.92
2022-11-14T04:00:03.413Z,1009.83
2022-11-14T04:05:03.113Z,1009.66
2022-11-14T04:10:04.504Z,1009.44
2022-11-14T04:15:03.163Z,1009.35
2022-11-14T04:20:03.327Z,1009.08
2022-11-14T04:25:03.200Z,1009.08
2022-11-14T04:30:03.192Z,1008.91
2022-11-14T04:35:03.158Z,1008.67
2022-11-14T04:40:03.288Z,1008.45
2022-11-14T04:45:03.233Z,1008.26
2022-11-14T04:50:03.280Z,1007.93
2022-11-14T04:55:03.217Z,1007.72
2022-11-14T05:00:03.450Z,1007.49
2022-11-14T05:05:03.301Z,1006.96
2022-11-14T05:10:03.238Z,1006.61
2022-11-14T05:15:03.144Z,1006.03
2022-11-14T05:20:03.215Z,1005.36
2022-11-14T05:25:03.149Z,1004.98
2022-11-14T05:30:03.253Z,1004.79
2022-11-14T05:35:03.289Z,1004.62
2022-11-14T05:40:03.205Z,1004.65
2022-11-14T05:45:03.117Z,1004.51
2022-11-14T05:50:03.208Z,1004.39
2022-11-14T05:55:03.342Z,1004.24
2022-11-14T06:00:03.435Z,1004.41
2022-11-14T06:05:03.298Z,1004.52
2022-11-14T06:10:03.488Z,1004.76
2022-11-14T06:15:03.215Z,1006.21
2022-11-14T06:20:03.290Z,1007.17
2022-11-14T06:25:03.209Z,1007.24
2022-11-14T06:30:03.287Z,1007.45
2022-11-14T06:35:03.191Z,1007.62
2022-11-14T06:40:03.192Z,1007.78
2022-11-14T06:45:03.156Z,1007.58
2022-11-14T06:50:03.488Z,1007.39
2022-11-14T06:55:03.298Z,1007.42
2022-11-14T07:00:03.165Z,1007.44
2022-11-14T07:05:03.244Z,1007.43
2022-11-14T07:10:03.184Z,1007.39
2022-11-14T07:15:03.139Z,1007.41
2022-11-14T07:20:03.208Z,1007.44
2022-11-14T07:25:03.204Z,1007.44
2022-11-14T07:30:03.398Z,1007.36
2022-11-14T07:35:03.231Z,1007.26
2022-11-14T07:40:03.233Z,1007.23
2022-11-14T07:45:03.142Z,1007.36
2022-11-14T07:50:03.303Z,1007.44
2022-11-14T07:55:03.327Z,1007.57
2022-11-14T08:00:03.329Z,1007.48
2022-11-14T08:05:03.231Z,1007.49
2022-11-14T08:10:03.214Z,1007.6
2022-11-14T08:15:03.121Z,1007.78
2022-11-14T08:20:03.208Z,1007.94
2022-11-14T08:25:03.157Z,1007.94
2022-11-14T08:30:03.301Z,1007.99
2022-11-14T08:35:03.214Z,1008.01
2022-11-14T08:40:03.253Z,1008.09
2022-11-14T08:45:03.073Z,1008.16
2022-11-14T08:50:03.228Z,1008.29
2022-11-14T08:55:03.178Z,1008.57
2022-11-14T09:00:03.265Z,1008.82
2022-11-14T09:05:03.239Z,1008.94
2022-11-14T09:10:03.385Z,1008.86
2022-11-14T09:15:03.224Z,1008.95
2022-11-14T09:20:03.166Z,1009.01
2022-11-14T09:25:03.332Z,1009.08
2022-11-14T09:30:03.409Z,1009.04
2022-11-14T09:35:03.281Z,1009.03
2022-11-14T09:40:03.344Z,1008.98
2022-11-14T09:45:04.038Z,1008.98
2022-11-14T09:50:03.310Z,1009.1
2022-11-14T09:55:03.217Z,1009.27
2022-11-14T10:00:03.617Z,1009.62
2022-11-14T10:05:03.262Z,1009.85
2022-11-14T10:10:03.171Z,1009.93
2022-11-14T10:15:03.083Z,1009.92
2022-11-14T10:20:03.356Z,1010.0
2022-11-14T10:25:03.163Z,1010.13
2022-11-14T10:30:03.266Z,1010.15
2022-11-14T10:35:03.216Z,1010.05
2022-11-14T10:40:03.404Z,1010.05
2022-11-14T10:45:03.178Z,1010.11
2022-11-14T10:50:03.487Z,1010.23
2022-11-14T10:55:03.175Z,1010.36
2022-11-14T11:00:03.344Z,1010.38
2022-11-14T11:05:03.214Z,1010.25
2022-11-14T11:10:03.409Z,1010.28
2022-11-14T11:15:03.170Z,1010.24
2022-11-14T11:20:07.465Z,1010.25
2022-11-14T11:25:03.171Z,1010.42
2022-11-14T11:30:08.242Z,1010.37
2022-11-14T11:35:03.229Z,1010.31
2022-11-14T11:40:03.382Z,1010.25
2022-11-14T11:45:03.160Z,1010.17
2022-11-14T11:50:03.285Z,1010.17
2022-11-14T11:55:03.164Z,1010.29
2022-11-14T12:00:03.330Z,1010.39
2022-11-14T12:05:03.236Z,1010.6
2022-11-14T12:10:10.073Z,1010.65
2022-11-14T12:15:03.207Z,1010.76
2022-11-14T12:20:03.322Z,1010.79
2022-11-14T12:25:03.246Z,1011.05
2022-11-14T12:30:03.383Z,1011.14
2022-11-14T12:35:03.306Z,1011.23
2022-11-14T12:40:03.396Z,1011.21
2022-11-14T12:45:03.279Z,1011.09
2022-11-14T12:50:03.325Z,1011.05
2022-11-14T12:55:03.236Z,1011.03
2022-11-14T13:00:03.300Z,1011.04
2022-11-14T13:05:03.368Z,1010.96
2022-11-14T13:10:03.394Z,1010.96
2022-11-14T13:15:04.762Z,1010.98
2022-11-14T13:20:03.237Z,1011.01
2022-11-14T13:25:03.182Z,1011.1
2022-11-14T13:30:03.400Z,1011.23
2022-11-14T13:35:03.334Z,1011.28
2022-11-14T13:40:03.430Z,1011.45
2022-11-14T13:45:03.156Z,1011.69
2022-11-14T13:50:03.249Z,1011.77
2022-11-14T13:55:03.188Z,1011.73
2022-11-14T14:00:04.521Z,1011.73
2022-11-14T14:05:04.492Z,1011.72
2022-11-14T14:10:03.456Z,1011.91
2022-11-14T14:15:03.315Z,1012.09
2022-11-14T14:20:03.324Z,1012.19
2022-11-14T14:25:03.163Z,1012.16
2022-11-14T14:30:08.280Z,1012.09
2022-11-14T14:35:03.339Z,1011.9
2022-11-14T14:40:03.444Z,1011.92
2022-11-14T14:45:03.138Z,1011.99
2022-11-14T14:50:03.263Z,1011.91
2022-11-14T14:55:03.280Z,1011.9
2022-11-14T15:00:03.356Z,1011.9
2022-11-14T15:05:03.351Z,1011.98
2022-11-14T15:10:03.343Z,1011.86
2022-11-14T15:15:03.334Z,1011.83
2022-11-14T15:20:03.266Z,1011.77
2022-11-14T15:25:03.237Z,1011.68
2022-11-14T15:30:04.400Z,1011.63
2022-11-14T15:35:03.253Z,1011.69
2022-11-14T15:40:03.452Z,1011.74
2022-11-14T15:45:03.196Z,1011.65
2022-11-14T15:50:03.696Z,1011.68
2022-11-14T15:55:03.205Z,1011.61
2022-11-14T16:00:03.379Z,1011.55
2022-11-14T16:05:03.196Z,1011.52
2022-11-14T16:10:03.481Z,1011.5
2022-11-14T16:15:03.371Z,1011.51
2022-11-14T16:20:03.399Z,1011.48
2022-11-14T16:25:03.187Z,1011.45
2022-11-14T16:30:03.310Z,1011.43
2022-11-14T16:35:03.395Z,1011.42
2022-11-14T16:40:03.457Z,1011.45
2022-11-14T16:45:03.130Z,1011.42
2022-11-14T16:50:03.184Z,1011.42
2022-11-14T16:55:03.162Z,1011.38
2022-11-14T17:00:03.367Z,1011.42
2022-11-14T17:05:03.275Z,1011.45
2022-11-14T17:10:03.342Z,1011.49
2022-11-14T17:15:03.329Z,1011.3
2022-11-14T17:20:03.276Z,1011.28
2022-11-14T17:25:03.180Z,1011.25
2022-11-14T17:30:03.237Z,1011.23
2022-11-14T17:35:03.262Z,1011.25
2022-11-14T17:40:03.411Z,1011.21
2022-11-14T17:45:03.562Z,1011.2
2022-11-14T17:50:03.247Z,1011.15
2022-11-14T17:55:03.185Z,1011.01
2022-11-14T18:00:03.347Z,1010.94
2022-11-14T18:05:03.191Z,1010.95
2022-11-14T18:10:03.411Z,1010.85
2022-11-14T18:15:03.139Z,1010.79
2022-11-14T18:20:03.199Z,1010.74
2022-11-14T18:25:07.572Z,1010.69
2022-11-14T18:30:19.933Z,1010.68
2022-11-14T18:35:03.229Z,1010.61
2022-11-14T18:40:03.194Z,1010.59
2022-11-14T18:45:03.299Z,1010.57
2022-11-14T18:50:03.251Z,1010.49
2022-11-14T18:55:03.260Z,1010.48
2022-11-14T19:00:03.309Z,1010.52
2022-11-14T19:05:03.301Z,1010.48
2022-11-14T19:10:03.537Z,1010.44
2022-11-14T19:15:03.297Z,1010.45
2022-11-14T19:20:03.334Z,1010.4
2022-11-14T19:25:03.247Z,1010.32
2022-11-14T19:30:03.329Z,1010.35
2022-11-14T19:35:03.198Z,1010.38
2022-11-14T19:40:03.351Z,1010.43
2022-11-14T19:45:03.198Z,1010.39
2022-11-14T19:50:03.259Z,1010.36
2022-11-14T19:55:03.279Z,1010.38
2022-11-14T20:00:04.273Z,1010.37
2022-11-14T20:05:03.251Z,1010.32
2022-11-14T20:10:03.340Z,1010.28
2022-11-14T20:15:03.338Z,1010.23
2022-11-14T20:20:04.344Z,1010.25
2022-11-14T20:25:03.167Z,1010.19
2022-11-14T20:30:03.495Z,1010.16
2022-11-14T20:35:03.251Z,1010.12
2022-11-14T20:40:03.475Z,1010.07
2022-11-14T20:45:03.345Z,1010.04
2022-11-14T20:50:03.196Z,1010.05
2022-11-14T20:55:06.207Z,1009.98
2022-11-14T21:00:03.332Z,1009.98
2022-11-14T21:05:03.208Z,1010.0
2022-11-14T21:10:03.378Z,1010.06
2022-11-14T21:15:03.444Z,1010.03
2022-11-14T21:20:04.351Z,1009.99
2022-11-14T21:25:03.356Z,1010.04
2022-11-14T21:30:04.646Z,1010.1
2022-11-14T21:35:07.025Z,1010.14
2022-11-14T21:40:03.421Z,1010.2
2022-11-14T21:45:03.353Z,1010.18
2022-11-14T21:50:03.417Z,1010.17
2022-11-14T21:55:03.181Z,1010.21
2022-11-14T22:00:03.363Z,1010.27
2022-11-14T22:05:03.235Z,1010.31
2022-11-14T22:10:03.529Z,1010.29
2022-11-14T22:15:03.267Z,1010.31
2022-11-14T22:20:03.299Z,1010.4
2022-11-14T22:25:03.208Z,1010.44
2022-11-14T22:30:03.433Z,1010.56
2022-11-14T22:35:03.330Z,1010.67
2022-11-14T22:40:03.670Z,1010.81
2022-11-14T22:45:03.494Z,1010.86
2022-11-14T22:50:03.239Z,1010.96
2022-11-14T22:55:03.216Z,1010.98
2022-11-14T23:00:03.494Z,1011.02
2022-11-14T23:05:03.250Z,1011.01
2022-11-14T23:10:03.486Z,1011.05
2022-11-14T23:15:03.382Z,1011.05
2022-11-14T23:20:03.282Z,1011.03
2022-11-14T23:25:03.253Z,1011.06
2022-11-14T23:30:03.325Z,1011.13
2022-11-14T23:35:03.322Z,1011.17
2022-11-14T23:40:03.393Z,1011.28
2022-11-14T23:45:03.334Z,1011.33
2022-11-14T23:50:03.206Z,1011.4
2022-11-14T23:55:03.228Z,1011.44
